Terminal Aerodrome Forecast
Issued by NWS

Current Version | Previous Version | Graphics & Text | Print | Product List | Glossary On
Versions: 1 2 3 4 5 6 7 8 9 10 11 12 13 14 15 16 17
000
FTUS41 KPBZ 231700
TAFHLG
TAF
KHLG 231733Z 2318/2418 18009KT P6SM BKN250
     FM240100 15010KT 6SM -RA BKN050
     FM240300 18012G20KT 5SM -RA OVC015
     FM241000 17013KT P6SM OVC025
     FM241400 19017G35KT P6SM BKN050=

USA.gov is the U.S. government's official web portal to all federal, state and local government web resources and services.